createdAt,value
2019-04-14T00:00:31.291Z,44.93
2019-04-14T00:03:48.098Z,48.77
2019-04-14T00:06:37.971Z,45.10
2019-04-14T00:16:20.651Z,41.23
2019-04-14T00:19:26.167Z,47.50
2019-04-14T00:22:09.447Z,41.17
2019-04-14T00:28:18.896Z,42.27
2019-04-14T00:35:01.754Z,45.33
2019-04-14T00:38:43.457Z,38.67
2019-04-14T00:45:32.171Z,45.70
2019-04-14T00:48:25.830Z,41.50
2019-04-14T00:51:26.587Z,41.97
2019-04-14T00:57:07.659Z,47.50
2019-04-14T01:00:23.432Z,46.17
2019-04-14T01:03:17.796Z,43.87
2019-04-14T01:06:12.232Z,38.90
2019-04-14T01:09:10.751Z,40.97
2019-04-14T01:11:55.298Z,41.20
2019-04-14T01:24:44.692Z,47.43
2019-04-14T01:27:27.766Z,39.87
2019-04-14T01:33:05.360Z,38.27
2019-04-14T01:39:17.545Z,47.13
2019-04-14T01:42:22.377Z,43.00
2019-04-14T01:45:12.585Z,47.87
2019-04-14T01:47:53.662Z,45.67
2019-04-14T01:51:02.744Z,43.90
2019-04-14T01:54:40.977Z,45.50
2019-04-14T01:57:34.942Z,42.70
2019-04-14T02:01:28.158Z,38.70
2019-04-14T02:04:18.709Z,45.00
2019-04-14T02:10:10.686Z,43.17
2019-04-14T02:13:07.672Z,42.60
2019-04-14T02:15:48.535Z,46.37
2019-04-14T02:18:44.798Z,51.90
2019-04-14T02:21:23.768Z,51.17
2019-04-14T02:24:22.099Z,45.83
2019-04-14T02:27:07.719Z,49.00
2019-04-14T02:29:58.329Z,51.10
2019-04-14T02:42:17.382Z,40.27
2019-04-14T02:45:10.403Z,45.77
2019-04-14T02:48:05.680Z,51.33
2019-04-14T02:54:00.843Z,46.30
2019-04-14T02:56:36.288Z,43.57
2019-04-14T03:00:37.203Z,48.33
2019-04-14T03:06:25.257Z,42.87
2019-04-14T03:09:34.739Z,42.53
2019-04-14T03:11:51.306Z,50.40
2019-04-14T03:15:19.428Z,56.17
2019-04-14T03:18:31.774Z,48.83
2019-04-14T03:25:27.659Z,43.60
2019-04-14T03:35:23.222Z,50.23
2019-04-14T03:38:18.458Z,41.60
2019-04-14T03:44:43.567Z,44.40
2019-04-14T03:51:06.819Z,52.90
2019-04-14T03:57:15.060Z,47.17
2019-04-14T04:00:20.221Z,49.87
2019-04-14T04:06:05.968Z,51.57
2019-04-14T04:08:59.570Z,51.90
2019-04-14T04:18:48.982Z,45.33
2019-04-14T04:25:18.233Z,47.73
2019-04-14T04:28:25.620Z,38.60
2019-04-14T04:35:08.465Z,39.00
2019-04-14T04:44:29.203Z,40.67
2019-04-14T04:50:23.909Z,40.23
2019-04-14T04:53:00.462Z,46.70
2019-04-14T04:56:20.887Z,43.67
2019-04-14T04:59:18.933Z,45.27
2019-04-14T05:02:30.729Z,36.13
2019-04-14T05:05:32.088Z,45.90
2019-04-14T05:08:55.238Z,45.67
2019-04-14T05:11:36.752Z,34.10
2019-04-14T05:14:26.206Z,39.60
2019-04-14T05:17:36.932Z,38.30
2019-04-14T05:20:29.197Z,35.47
2019-04-14T05:23:14.689Z,37.83
2019-04-14T05:26:07.087Z,36.40
2019-04-14T05:29:15.188Z,37.73
2019-04-14T05:35:38.752Z,39.63
2019-04-14T05:38:16.969Z,37.70
2019-04-14T05:41:06.957Z,33.77
2019-04-14T05:44:09.908Z,32.90
2019-04-14T05:47:34.928Z,40.30
2019-04-14T05:53:19.643Z,39.47
2019-04-14T05:56:01.340Z,35.27
2019-04-14T06:01:56.780Z,28.37
2019-04-14T06:04:44.694Z,31.57
2019-04-14T06:08:06.512Z,26.47
2019-04-14T06:11:19.803Z,27.17
2019-04-14T06:20:38.718Z,25.30
2019-04-14T06:23:28.276Z,27.60
2019-04-14T06:26:28.653Z,26.97
2019-04-14T06:33:15.740Z,26.20
2019-04-14T06:36:15.785Z,23.40
2019-04-14T06:42:31.375Z,24.50
2019-04-14T06:48:34.627Z,25.67
2019-04-14T06:57:39.560Z,23.90
2019-04-14T07:08:06.996Z,23.90
2019-04-14T07:13:54.467Z,23.50
2019-04-14T07:17:18.656Z,19.47
2019-04-14T07:20:48.624Z,24.93
2019-04-14T07:34:24.196Z,19.93
2019-04-14T07:41:02.613Z,22.33
2019-04-14T07:47:10.568Z,19.73
2019-04-14T08:01:09.677Z,21.90
2019-04-14T08:04:15.912Z,20.17
2019-04-14T08:07:00.332Z,19.47
2019-04-14T08:10:12.801Z,17.53
2019-04-14T08:12:50.177Z,19.93
2019-04-14T08:19:46.951Z,17.43
2019-04-14T08:26:39.368Z,17.37
2019-04-14T08:29:39.322Z,17.20
2019-04-14T08:32:17.252Z,17.07
2019-04-14T08:34:56.761Z,19.43
2019-04-14T08:37:41.296Z,15.60
2019-04-14T08:40:18.616Z,16.00
2019-04-14T08:43:08.546Z,16.53
2019-04-14T08:46:37.469Z,19.37
2019-04-14T08:49:54.156Z,16.40
2019-04-14T08:53:03.471Z,14.57
2019-04-14T08:56:45.534Z,15.30
2019-04-14T08:59:39.725Z,19.37
2019-04-14T09:02:40.759Z,13.53
2019-04-14T09:05:47.392Z,16.50
2019-04-14T09:08:43.049Z,14.73
2019-04-14T09:15:40.564Z,13.13
2019-04-14T09:18:17.204Z,13.80
2019-04-14T09:21:26.620Z,15.30
2019-04-14T09:24:45.633Z,12.40
2019-04-14T09:27:49.568Z,13.17
2019-04-14T09:34:00.566Z,15.67
2019-04-14T09:40:39.395Z,12.90
2019-04-14T09:43:22.580Z,16.90
2019-04-14T09:46:31.665Z,17.80
2019-04-14T09:49:13.914Z,15.03
2019-04-14T09:54:57.408Z,15.70
2019-04-14T09:58:19.765Z,15.47
2019-04-14T10:04:38.034Z,14.20
2019-04-14T10:13:46.653Z,13.40
2019-04-14T10:27:11.210Z,8.97
2019-04-14T10:30:17.529Z,12.30
2019-04-14T10:33:25.108Z,21.17
2019-04-14T10:36:58.004Z,12.33
2019-04-14T10:40:05.880Z,13.90
2019-04-14T10:46:49.443Z,13.90
2019-04-14T10:53:15.811Z,12.33
2019-04-14T10:56:27.835Z,12.97
2019-04-14T10:59:14.430Z,13.00
2019-04-14T11:02:11.999Z,12.23
2019-04-14T11:05:13.961Z,13.57
2019-04-14T11:07:56.017Z,10.53
2019-04-14T11:10:45.506Z,14.17
2019-04-14T11:13:42.948Z,12.87
2019-04-14T11:16:48.561Z,13.63
2019-04-14T11:19:41.997Z,15.33
2019-04-14T11:22:27.508Z,11.67
2019-04-14T11:25:49.391Z,10.20
2019-04-14T11:28:28.380Z,13.50
2019-04-14T11:31:13.592Z,13.73
2019-04-14T11:44:04.927Z,17.77
2019-04-14T11:46:44.883Z,12.90
2019-04-14T11:56:14.737Z,13.10
2019-04-14T11:59:15.090Z,14.67
2019-04-14T12:02:31.344Z,13.30
2019-04-14T12:05:50.565Z,14.07
2019-04-14T12:09:22.917Z,9.10
2019-04-14T12:15:55.815Z,12.83
2019-04-14T12:18:36.450Z,12.30
2019-04-14T12:21:32.220Z,13.97
2019-04-14T12:24:31.443Z,13.27
2019-04-14T12:27:17.497Z,12.07
2019-04-14T12:30:20.172Z,18.10
2019-04-14T12:33:40.832Z,13.67
2019-04-14T12:36:42.800Z,13.37
2019-04-14T12:46:40.740Z,13.60
2019-04-14T12:49:55.969Z,14.83
2019-04-14T12:56:06.015Z,15.17
2019-04-14T13:02:31.112Z,12.30
2019-04-14T13:05:57.664Z,10.23
2019-04-14T13:11:52.138Z,14.23
2019-04-14T13:15:20.362Z,10.53
2019-04-14T13:18:10.776Z,11.50
2019-04-14T13:21:26.352Z,12.73
2019-04-14T13:24:15.939Z,16.43
2019-04-14T13:27:11.552Z,15.60
2019-04-14T13:29:45.703Z,12.17
2019-04-14T13:35:57.094Z,14.40
2019-04-14T13:38:38.317Z,15.43
2019-04-14T13:41:29.574Z,14.90
2019-04-14T13:44:04.097Z,14.30
2019-04-14T13:56:24.704Z,16.57
2019-04-14T13:59:22.559Z,11.97
2019-04-14T14:05:31.466Z,12.00
2019-04-14T14:12:41.610Z,11.07
2019-04-14T14:22:58.668Z,13.43
2019-04-14T14:26:01.004Z,10.40
2019-04-14T14:29:13.303Z,11.67
2019-04-14T14:32:36.930Z,7.23
2019-04-14T14:35:44.470Z,11.60
2019-04-14T14:38:30.930Z,10.07
2019-04-14T14:41:17.330Z,10.37
2019-04-14T14:44:06.649Z,9.53
2019-04-14T14:47:10.401Z,7.27
2019-04-14T14:50:12.228Z,11.37
2019-04-14T14:59:34.609Z,8.90
2019-04-14T15:02:08.604Z,5.77
2019-04-14T15:05:27.765Z,6.30
2019-04-14T15:22:05.304Z,8.43
2019-04-14T15:27:54.245Z,7.80
2019-04-14T15:30:31.952Z,6.87
2019-04-14T15:33:30.912Z,8.73
2019-04-14T15:36:14.734Z,7.10
2019-04-14T15:38:59.754Z,7.67
2019-04-14T15:41:47.197Z,8.30
2019-04-14T15:44:22.736Z,10.20
2019-04-14T15:54:25.297Z,7.23
2019-04-14T16:00:33.998Z,12.20
2019-04-14T16:03:42.910Z,10.33
2019-04-14T16:13:27.502Z,13.03
2019-04-14T16:20:25.688Z,8.23
2019-04-14T16:23:22.475Z,14.27
2019-04-14T16:26:41.714Z,13.27
2019-04-14T16:29:59.088Z,14.37
2019-04-14T16:33:13.138Z,14.83
2019-04-14T16:35:50.121Z,15.00
2019-04-14T16:38:40.186Z,10.83
2019-04-14T16:41:34.473Z,14.07
2019-04-14T16:44:23.883Z,13.90
2019-04-14T16:47:24.877Z,10.07
2019-04-14T16:56:41.580Z,10.10
2019-04-14T16:59:21.395Z,15.53
2019-04-14T17:02:13.032Z,11.30
2019-04-14T17:05:22.928Z,11.70
2019-04-14T17:12:04.431Z,13.60
2019-04-14T17:14:50.788Z,16.93
2019-04-14T17:24:49.214Z,15.20
2019-04-14T17:28:01.008Z,14.73
2019-04-14T17:35:13.434Z,12.80
2019-04-14T17:42:18.888Z,14.83
2019-04-14T17:45:29.952Z,12.73
2019-04-14T17:52:00.486Z,17.50
2019-04-14T17:55:17.801Z,21.03
2019-04-14T17:58:20.209Z,19.10
2019-04-14T18:08:33.344Z,18.30
2019-04-14T18:12:04.411Z,18.37
2019-04-14T18:25:26.181Z,15.07
2019-04-14T18:28:26.012Z,17.20
2019-04-14T18:31:43.949Z,14.37
2019-04-14T18:38:06.525Z,15.00
2019-04-14T18:41:00.094Z,18.07
2019-04-14T18:47:22.325Z,15.27
2019-04-14T18:50:39.595Z,16.63
2019-04-14T19:00:14.145Z,14.97
2019-04-14T19:03:07.929Z,12.07
2019-04-14T19:05:40.893Z,12.07
2019-04-14T19:12:29.107Z,12.10
2019-04-14T19:18:58.342Z,11.93
2019-04-14T19:22:02.007Z,7.60
2019-04-14T19:25:07.973Z,14.70
2019-04-14T19:27:54.476Z,11.80
2019-04-14T19:34:16.304Z,9.87
2019-04-14T19:36:54.278Z,11.60
2019-04-14T19:40:12.440Z,8.40
2019-04-14T19:42:54.077Z,10.23
2019-04-14T19:49:51.083Z,9.43
2019-04-14T19:52:45.757Z,7.97
2019-04-14T19:59:28.443Z,9.10
2019-04-14T20:02:11.813Z,9.50
2019-04-14T20:05:03.314Z,9.67
2019-04-14T20:13:52.347Z,9.83
2019-04-14T20:17:17.756Z,9.07
2019-04-14T20:20:19.548Z,8.20
2019-04-14T20:23:23.421Z,8.50
2019-04-14T20:26:31.455Z,6.87
2019-04-14T20:35:46.300Z,6.93
2019-04-14T20:38:45.602Z,6.67
2019-04-14T20:41:50.310Z,8.10
2019-04-14T20:48:16.511Z,8.67
2019-04-14T20:51:13.034Z,6.60
2019-04-14T20:54:26.049Z,4.43
2019-04-14T20:57:17.027Z,6.57
2019-04-14T21:00:35.555Z,7.97
2019-04-14T21:03:33.917Z,6.93
2019-04-14T21:06:49.600Z,7.30
2019-04-14T21:10:04.823Z,10.43
2019-04-14T21:17:02.889Z,7.30
2019-04-14T21:20:17.692Z,6.30
2019-04-14T21:23:56.114Z,7.10
2019-04-14T21:27:05.741Z,6.00
2019-04-14T21:30:02.347Z,7.60
2019-04-14T21:33:07.238Z,6.63
2019-04-14T21:36:10.872Z,8.33
2019-04-14T21:43:24.832Z,6.37
2019-04-14T21:46:23.012Z,8.57
2019-04-14T21:48:57.749Z,6.00
2019-04-14T21:52:01.006Z,6.27
2019-04-14T21:54:56.720Z,7.17
2019-04-14T21:58:38.520Z,5.73
2019-04-14T22:02:13.300Z,7.30
2019-04-14T22:05:20.262Z,7.80
2019-04-14T22:08:16.627Z,10.87
2019-04-14T22:17:51.665Z,7.33
2019-04-14T22:24:44.057Z,8.37
2019-04-14T22:31:21.343Z,10.40
2019-04-14T22:34:22.402Z,6.77
2019-04-14T22:40:26.541Z,10.57
2019-04-14T22:42:55.759Z,11.90
2019-04-14T22:45:25.725Z,9.10
2019-04-14T22:47:54.937Z,9.33
2019-04-14T22:50:24.063Z,9.97
2019-04-14T22:52:53.954Z,12.47
2019-04-14T22:55:23.128Z,9.00
2019-04-14T22:57:52.891Z,12.67
2019-04-14T23:00:38.325Z,10.63
2019-04-14T23:03:19.957Z,9.47
2019-04-14T23:06:00.434Z,14.80
2019-04-14T23:08:39.863Z,10.77
2019-04-14T23:11:32.965Z,14.23
2019-04-14T23:14:19.945Z,15.13
2019-04-14T23:17:20.413Z,17.50
2019-04-14T23:19:55.227Z,16.20
2019-04-14T23:22:46.975Z,13.30
2019-04-14T23:25:15.886Z,16.00
2019-04-14T23:27:45.373Z,17.67
2019-04-14T23:30:15.111Z,15.20
2019-04-14T23:32:44.115Z,17.10
2019-04-14T23:35:13.360Z,15.93
2019-04-14T23:37:49.341Z,12.93
2019-04-14T23:40:18.255Z,15.00
2019-04-14T23:42:47.104Z,19.37
2019-04-14T23:45:16.607Z,18.10
2019-04-14T23:47:45.734Z,17.10
2019-04-14T23:50:15.859Z,18.70
2019-04-14T23:52:45.025Z,17.17
2019-04-14T23:55:14.630Z,16.77
2019-04-14T23:57:44.033Z,15.80
